Time;durP1;ratioP1;P1;durP2;ratioP2;P2;SDS_P1;SDS_P2;PMS_P1;PMS_P2;Temp;Humidity;BMP_temperature;BMP_pressure;BME280_temperature;BME280_humidity;BME280_pressure;Samples;Min_cycle;Max_cycle;Signal;HPM_P1;HPM_P2
2022/01/24 00:01:31;;;;;;;27.02;16.45;;;5.90;99.90;;;;;;5030995;28;20408;-63
2022/01/24 00:03:58;;;;;;;27.40;15.77;;;5.90;99.90;;;;;;5043562;22;20136;-63
2022/01/24 00:06:27;;;;;;;28.23;15.40;;;5.90;99.90;;;;;;5050676;28;20037;-63
2022/01/24 00:08:53;;;;;;;29.70;15.13;;;5.90;99.90;;;;;;5050831;28;20072;-63
2022/01/24 00:11:23;;;;;;;25.60;14.60;;;5.80;99.90;;;;;;5051071;28;20068;-63
2022/01/24 00:16:34;;;;;;;29.40;16.02;;;5.80;99.90;;;;;;5051035;28;20498;-63
2022/01/24 00:26:57;;;;;;;25.83;14.77;;;5.80;99.90;;;;;;5033000;28;20106;-63
2022/01/24 00:29:24;;;;;;;20.80;12.43;;;5.80;99.90;;;;;;5050591;28;20528;-63
2022/01/24 00:31:51;;;;;;;22.80;12.05;;;5.80;99.90;;;;;;5050675;28;20094;-63
2022/01/24 00:34:17;;;;;;;22.33;11.68;;;5.80;99.90;;;;;;5050565;28;20171;-63
2022/01/24 00:36:47;;;;;;;24.10;13.05;;;5.80;99.90;;;;;;5050615;28;20540;-64
2022/01/24 00:39:12;;;;;;;23.33;13.13;;;5.80;99.90;;;;;;5050763;28;20044;-63
2022/01/24 00:42:48;;;;;;;22.25;12.73;;;5.80;99.90;;;;;;5050282;28;20033;-64
2022/01/24 00:44:45;;;;;;;22.33;13.00;;;5.80;99.90;;;;;;5028327;28;20047;-63
2022/01/24 00:47:18;;;;;;;21.90;12.55;;;5.80;99.90;;;;;;5050475;28;20033;-63
2022/01/24 00:52:59;;;;;;;23.92;12.32;;;5.80;99.90;;;;;;5050523;28;20048;-64
2022/01/24 00:55:26;;;;;;;24.17;13.57;;;5.80;99.90;;;;;;5049980;28;20477;-63
2022/01/24 00:57:51;;;;;;;23.88;12.93;;;5.70;99.90;;;;;;5049694;28;20044;-63
2022/01/24 01:00:17;;;;;;;24.02;13.57;;;5.70;99.90;;;;;;5032357;28;20056;-63
2022/01/24 01:02:43;;;;;;;25.33;13.82;;;5.70;99.90;;;;;;5049433;28;20029;-63
2022/01/24 01:05:25;;;;;;;21.98;12.65;;;5.70;99.90;;;;;;5049908;28;20526;-63
2022/01/24 01:08:01;;;;;;;22.85;13.10;;;5.70;99.90;;;;;;5049917;28;20040;-63
2022/01/24 01:18:40;;;;;;;22.70;12.57;;;5.70;99.90;;;;;;5049801;28;20614;-63
2022/01/24 01:21:14;;;;;;;24.00;12.95;;;5.70;99.90;;;;;;5049784;28;20033;-63
2022/01/24 01:23:54;;;;;;;21.33;13.00;;;5.70;99.90;;;;;;5049177;28;20048;-63
2022/01/24 01:26:30;;;;;;;21.73;12.30;;;5.70;99.90;;;;;;5049684;28;20075;-63
2022/01/24 01:29:19;;;;;;;21.15;12.63;;;5.70;99.90;;;;;;5031791;28;20596;-63
2022/01/24 01:31:53;;;;;;;22.25;12.07;;;5.60;99.90;;;;;;5048801;28;20664;-63
2022/01/24 01:55:39;;;;;;;21.55;12.13;;;5.70;99.90;;;;;;5049776;28;20049;-63
2022/01/24 01:58:06;;;;;;;20.88;12.48;;;5.70;99.90;;;;;;5032327;28;20045;-63
2022/01/24 02:00:33;;;;;;;21.33;12.20;;;5.70;99.90;;;;;;5049711;28;20033;-63
2022/01/24 02:02:58;;;;;;;21.88;11.65;;;5.80;99.90;;;;;;5049409;28;20107;-63
2022/01/24 02:05:24;;;;;;;20.98;11.88;;;5.70;99.90;;;;;;5049266;28;20544;-64
2022/01/24 02:07:51;;;;;;;18.92;12.00;;;5.70;99.90;;;;;;5049958;28;20044;-64
2022/01/24 02:10:19;;;;;;;22.58;12.20;;;5.70;99.90;;;;;;5053695;28;20041;-63
2022/01/24 02:12:47;;;;;;;23.17;12.52;;;5.70;99.90;;;;;;5053468;28;20045;-63
2022/01/24 02:15:17;;;;;;;23.38;13.52;;;5.70;99.90;;;;;;5035629;28;20428;-63
2022/01/24 02:18:04;;;;;;;21.42;12.10;;;5.70;99.90;;;;;;5035631;28;20424;-63
2022/01/24 02:23:35;;;;;;;26.20;12.85;;;5.70;99.90;;;;;;5053358;28;20045;-63
2022/01/24 02:26:04;;;;;;;20.35;11.98;;;5.70;99.90;;;;;;5053215;28;20046;-63
2022/01/24 02:28:41;;;;;;;20.60;12.90;;;5.70;99.90;;;;;;5053778;28;20044;-63
2022/01/24 02:33:52;;;;;;;20.00;12.65;;;5.70;99.90;;;;;;5052993;28;20040;-63
2022/01/24 02:36:23;;;;;;;21.33;12.25;;;5.70;99.90;;;;;;5035332;28;20059;-64
2022/01/24 02:39:15;;;;;;;23.27;12.38;;;5.70;99.90;;;;;;5053173;28;20045;-64
2022/01/24 02:49:54;;;;;;;23.67;13.95;;;5.70;99.90;;;;;;5053254;28;20047;-64
2022/01/24 02:52:23;;;;;;;23.77;13.55;;;5.60;99.90;;;;;;5053036;28;20064;-63
2022/01/24 02:54:49;;;;;;;22.52;13.43;;;5.70;99.90;;;;;;5052723;28;20041;-62
2022/01/24 02:57:14;;;;;;;24.83;14.90;;;5.70;99.90;;;;;;5052670;28;20063;-63
2022/01/24 02:59:41;;;;;;;24.00;13.57;;;5.70;99.90;;;;;;5053070;28;20124;-64
2022/01/24 03:02:07;;;;;;;23.52;13.68;;;5.70;99.90;;;;;;5052888;28;20041;-63
2022/01/24 03:04:32;;;;;;;23.42;13.38;;;5.70;99.90;;;;;;5052422;28;20103;-63
2022/01/24 03:06:58;;;;;;;24.13;13.45;;;5.70;99.90;;;;;;5034943;28;20125;-63
2022/01/24 03:09:24;;;;;;;24.13;13.63;;;5.70;99.90;;;;;;5052614;28;20095;-63
2022/01/24 03:12:11;;;;;;;22.75;13.63;;;5.70;99.90;;;;;;5052563;28;20449;-63
2022/01/24 03:14:37;;;;;;;24.02;13.70;;;5.70;99.90;;;;;;5034647;28;20053;-63
2022/01/24 03:17:05;;;;;;;25.85;13.88;;;5.70;99.90;;;;;;5052474;28;20478;-63
2022/01/24 03:19:30;;;;;;;25.42;14.52;;;5.70;99.90;;;;;;5051888;28;20110;-63
2022/01/24 03:21:56;;;;;;;26.05;14.18;;;5.70;99.90;;;;;;5052417;28;20479;-63
2022/01/24 03:24:22;;;;;;;21.58;13.27;;;5.70;99.90;;;;;;5051865;28;20048;-63
2022/01/24 03:26:48;;;;;;;26.63;14.10;;;5.70;99.90;;;;;;5052415;28;20040;-63
2022/01/24 03:29:13;;;;;;;22.75;12.95;;;5.80;99.90;;;;;;5052340;28;20044;-63
2022/01/24 03:31:40;;;;;;;24.60;14.07;;;5.70;99.90;;;;;;5052479;28;20041;-63
2022/01/24 03:34:06;;;;;;;22.23;13.10;;;5.70;99.90;;;;;;5034078;28;20060;-63
2022/01/24 03:36:32;;;;;;;26.92;14.02;;;5.70;99.90;;;;;;5052022;28;20387;-62
2022/01/24 03:38:58;;;;;;;22.23;13.65;;;5.70;99.90;;;;;;5051830;28;20166;-64
2022/01/24 03:41:24;;;;;;;25.92;14.20;;;5.70;99.90;;;;;;5051909;28;20029;-63
2022/01/24 03:43:50;;;;;;;25.75;15.23;;;5.70;99.90;;;;;;5052064;28;20116;-63
2022/01/24 03:48:50;;;;;;;27.30;15.48;;;5.70;99.90;;;;;;5051940;28;20123;-63
2022/01/24 03:51:17;;;;;;;29.52;15.70;;;5.70;99.90;;;;;;5051268;28;20506;-63
2022/01/24 03:53:44;;;;;;;26.33;14.88;;;5.80;99.90;;;;;;5051472;28;20045;-63
2022/01/24 03:56:10;;;;;;;28.95;16.08;;;5.70;99.90;;;;;;5051605;28;20041;-64
2022/01/24 03:58:36;;;;;;;30.35;16.33;;;5.70;99.90;;;;;;5051769;28;20120;-63
2022/01/24 04:01:05;;;;;;;30.75;16.65;;;5.70;99.90;;;;;;5033706;28;20033;-63
2022/01/24 04:03:31;;;;;;;26.83;15.50;;;5.70;99.90;;;;;;5033380;28;20037;-63
2022/01/24 04:05:56;;;;;;;26.58;15.10;;;5.70;99.90;;;;;;5051679;28;20072;-63
2022/01/24 04:08:22;;;;;;;26.05;14.85;;;5.70;99.90;;;;;;5051443;28;20072;-64
2022/01/24 04:10:52;;;;;;;25.77;14.30;;;5.70;99.90;;;;;;5051426;28;20090;-63
2022/01/24 04:13:32;;;;;;;32.83;17.40;;;5.70;99.90;;;;;;5051098;28;20620;-63
2022/01/24 04:16:24;;;;;;;28.65;15.60;;;5.80;99.90;;;;;;5033441;28;20431;-63
2022/01/24 04:19:16;;;;;;;29.33;15.82;;;5.70;99.90;;;;;;5033204;28;20052;-64
2022/01/24 04:21:47;;;;;;;27.92;15.27;;;5.80;99.90;;;;;;5034826;28;20391;-62
2022/01/24 04:24:18;;;;;;;26.27;15.13;;;5.80;99.90;;;;;;5033396;28;20049;-63
2022/01/24 04:26:44;;;;;;;31.15;16.00;;;5.70;99.90;;;;;;5032981;28;20055;-63
2022/01/24 04:29:09;;;;;;;28.20;15.88;;;5.70;99.90;;;;;;5050367;28;20045;-63
2022/01/24 04:31:36;;;;;;;26.90;14.52;;;5.80;99.90;;;;;;5048646;28;20498;-63
2022/01/24 04:34:02;;;;;;;27.40;16.08;;;5.70;99.90;;;;;;5050048;28;20043;-63
2022/01/24 04:36:28;;;;;;;29.95;16.08;;;5.70;99.90;;;;;;5050186;28;20143;-63
2022/01/24 04:38:54;;;;;;;28.85;15.77;;;5.70;99.90;;;;;;5050082;28;20120;-63
2022/01/24 04:41:24;;;;;;;29.75;16.35;;;5.70;99.90;;;;;;5049644;28;20045;-64
2022/01/24 04:44:16;;;;;;;27.65;15.48;;;5.70;99.90;;;;;;5050120;28;20083;-63
2022/01/24 04:54:44;;;;;;;27.73;15.02;;;5.70;99.90;;;;;;5050494;28;20051;-63
2022/01/24 04:57:16;;;;;;;29.63;16.48;;;5.70;99.90;;;;;;5032976;28;20045;-63
2022/01/24 04:59:46;;;;;;;28.27;16.35;;;5.70;99.90;;;;;;5050756;28;20076;-63
2022/01/24 05:02:12;;;;;;;24.40;13.98;;;5.70;99.90;;;;;;5050202;28;20037;-63
2022/01/24 05:04:38;;;;;;;39.78;19.15;;;5.60;99.90;;;;;;5050073;28;20045;-64
2022/01/24 05:07:04;;;;;;;35.58;18.02;;;5.60;99.90;;;;;;5032634;28;20048;-64
2022/01/24 05:09:35;;;;;;;36.03;18.35;;;5.70;99.90;;;;;;5032862;28;20130;-63
2022/01/24 05:12:07;;;;;;;52.15;25.92;;;5.60;99.90;;;;;;5050367;28;20037;-63
2022/01/24 05:25:30;;;;;;;54.00;25.85;;;5.70;99.90;;;;;;5050176;28;20048;-63
2022/01/24 05:27:56;;;;;;;57.42;26.75;;;5.70;99.90;;;;;;5032141;28;20047;-63
2022/01/24 05:30:21;;;;;;;58.20;29.30;;;5.70;99.90;;;;;;5050277;28;20068;-63
2022/01/24 05:32:47;;;;;;;54.28;28.42;;;5.70;99.90;;;;;;5049870;28;20452;-63
2022/01/24 05:35:13;;;;;;;55.03;28.00;;;5.70;99.90;;;;;;5049900;28;20487;-63
2022/01/24 05:37:39;;;;;;;54.70;29.02;;;5.70;99.90;;;;;;5049761;28;20093;-63
2022/01/24 05:40:07;;;;;;;57.78;28.77;;;5.70;99.90;;;;;;5049955;28;20383;-63
2022/01/24 05:42:32;;;;;;;57.78;29.00;;;5.70;99.90;;;;;;5031527;28;20037;-63
2022/01/24 05:44:59;;;;;;;52.85;26.70;;;5.70;99.90;;;;;;5049608;28;20048;-64
2022/01/24 05:47:24;;;;;;;62.72;30.80;;;5.70;99.90;;;;;;5049408;28;20033;-62
2022/01/24 05:49:50;;;;;;;60.78;30.95;;;5.70;99.90;;;;;;5047133;28;20374;-62
2022/01/24 05:52:16;;;;;;;63.28;29.23;;;5.70;99.90;;;;;;5046811;28;20099;-64
2022/01/24 05:54:42;;;;;;;60.75;30.08;;;5.70;99.90;;;;;;5046796;28;20037;-63
2022/01/24 05:57:09;;;;;;;63.75;29.90;;;5.70;99.90;;;;;;5047017;28;20033;-63
2022/01/24 05:59:34;;;;;;;59.65;29.15;;;5.70;99.90;;;;;;5046876;28;20045;-63
2022/01/24 06:02:00;;;;;;;60.80;27.98;;;5.60;99.90;;;;;;5046938;28;20506;-63
2022/01/24 06:04:26;;;;;;;66.70;31.35;;;5.60;99.90;;;;;;5028586;28;20049;-63
2022/01/24 06:06:51;;;;;;;66.22;31.10;;;5.60;99.90;;;;;;5029132;28;20041;-63
2022/01/24 06:09:17;;;;;;;70.45;32.80;;;5.60;99.90;;;;;;5046954;28;20036;-63
2022/01/24 06:11:43;;;;;;;67.90;32.38;;;5.70;99.90;;;;;;5047052;28;20063;-63
2022/01/24 06:14:09;;;;;;;65.82;31.27;;;5.70;99.90;;;;;;5046334;28;20045;-63
2022/01/24 06:16:35;;;;;;;66.32;29.42;;;5.70;99.90;;;;;;5046813;28;20040;-62
2022/01/24 06:19:01;;;;;;;67.47;31.17;;;5.70;99.90;;;;;;5046895;28;20687;-63
2022/01/24 06:21:27;;;;;;;65.38;31.08;;;5.60;99.90;;;;;;5046476;28;20846;-63
2022/01/24 06:23:52;;;;;;;68.38;32.50;;;5.70;99.90;;;;;;5046711;28;20041;-63
2022/01/24 06:26:18;;;;;;;54.70;26.00;;;5.60;99.90;;;;;;5046605;28;20509;-63
2022/01/24 06:28:43;;;;;;;58.45;26.23;;;5.60;99.90;;;;;;5046522;28;20036;-63
2022/01/24 06:31:09;;;;;;;58.72;27.30;;;5.60;99.90;;;;;;5046664;28;20048;-63
2022/01/24 06:33:35;;;;;;;54.08;26.50;;;5.50;99.90;;;;;;5046380;28;20420;-63
2022/01/24 06:36:00;;;;;;;58.58;27.15;;;5.50;99.90;;;;;;5046333;28;20037;-63
2022/01/24 06:38:26;;;;;;;61.78;29.20;;;5.50;99.90;;;;;;5028712;28;20056;-64
2022/01/24 06:40:52;;;;;;;56.30;26.02;;;5.50;99.90;;;;;;5046699;28;20041;-62
2022/01/24 06:43:17;;;;;;;57.78;26.27;;;5.50;99.90;;;;;;5046231;28;20036;-62
2022/01/24 06:45:43;;;;;;;58.13;27.55;;;5.50;99.90;;;;;;5046446;28;20418;-63
2022/01/24 06:48:09;;;;;;;65.25;30.08;;;5.50;99.90;;;;;;5046406;28;20052;-62
2022/01/24 06:50:34;;;;;;;62.90;29.65;;;5.40;99.90;;;;;;5046267;28;20029;-63
2022/01/24 06:53:00;;;;;;;67.65;31.27;;;5.50;99.90;;;;;;5046385;28;20049;-63
2022/01/24 06:55:26;;;;;;;64.90;30.10;;;5.50;99.90;;;;;;5048412;28;20618;-63
2022/01/24 06:57:51;;;;;;;74.68;32.88;;;5.50;99.90;;;;;;5050217;28;20075;-63
2022/01/24 07:00:17;;;;;;;74.30;32.90;;;5.60;99.90;;;;;;5050702;28;20519;-63
2022/01/24 07:02:42;;;;;;;69.07;30.98;;;5.60;99.90;;;;;;5046181;22;20055;-63
2022/01/24 07:05:08;;;;;;;62.55;30.05;;;5.60;99.90;;;;;;5014955;28;20411;-62
2022/01/24 07:07:34;;;;;;;66.05;30.77;;;5.60;99.90;;;;;;5032978;28;20073;-63
2022/01/24 07:10:00;;;;;;;67.60;31.70;;;5.60;99.90;;;;;;5032772;28;20033;-62
2022/01/24 07:12:26;;;;;;;62.97;30.05;;;5.60;99.90;;;;;;5032482;28;20033;-63
2022/01/24 07:14:53;;;;;;;64.43;30.60;;;5.60;99.90;;;;;;5032791;28;20092;-63
2022/01/24 07:19:50;;;;;;;57.63;28.50;;;5.60;99.90;;;;;;5032414;28;20654;-63
2022/01/24 07:22:16;;;;;;;76.18;34.65;;;5.60;99.90;;;;;;5032325;28;20121;-63
2022/01/24 07:24:42;;;;;;;65.00;29.60;;;5.60;99.90;;;;;;5032412;28;20046;-63
2022/01/24 07:27:07;;;;;;;63.83;29.90;;;5.60;99.90;;;;;;5014883;28;20048;-63
2022/01/24 07:29:33;;;;;;;58.80;27.85;;;5.60;99.90;;;;;;5032438;28;20443;-63
2022/01/24 07:31:58;;;;;;;58.33;28.35;;;5.60;99.90;;;;;;5032226;28;20041;-63
2022/01/24 07:34:24;;;;;;;62.90;29.23;;;5.60;99.90;;;;;;5031922;28;20044;-63
2022/01/24 07:36:51;;;;;;;71.60;32.70;;;5.50;99.90;;;;;;5032632;28;20033;-63
2022/01/24 07:39:17;;;;;;;69.22;34.33;;;5.50;99.90;;;;;;5014373;28;20095;-63
2022/01/24 07:41:47;;;;;;;73.72;35.55;;;5.60;99.90;;;;;;5031987;28;20561;-63
2022/01/24 07:44:14;;;;;;;72.82;34.92;;;5.60;99.90;;;;;;5031856;28;20450;-63
2022/01/24 07:46:41;;;;;;;72.45;34.88;;;5.70;99.90;;;;;;5032185;28;20095;-63
2022/01/24 07:49:08;;;;;;;68.47;34.30;;;5.70;99.90;;;;;;5014304;28;20091;-63
2022/01/24 07:51:35;;;;;;;65.10;33.25;;;5.60;99.90;;;;;;5014383;28;20056;-63
2022/01/24 07:54:00;;;;;;;69.20;32.90;;;5.60;99.90;;;;;;5031773;28;20038;-63
2022/01/24 07:56:26;;;;;;;68.35;34.55;;;5.60;99.90;;;;;;5032017;28;20041;-63
2022/01/24 07:58:52;;;;;;;75.60;33.97;;;5.60;99.90;;;;;;5031937;28;20033;-63
2022/01/24 08:01:19;;;;;;;71.78;34.60;;;5.60;99.90;;;;;;5031457;28;20546;-63
2022/01/24 08:03:45;;;;;;;74.07;34.72;;;5.70;99.90;;;;;;5031417;28;20045;-63
2022/01/24 08:06:10;;;;;;;71.80;34.80;;;5.70;99.90;;;;;;5013772;28;20063;-63
2022/01/24 08:08:37;;;;;;;71.25;34.70;;;5.70;99.90;;;;;;5031754;28;20038;-63
2022/01/24 08:11:02;;;;;;;73.82;35.83;;;5.70;99.90;;;;;;5031541;28;20137;-63
2022/01/24 08:13:28;;;;;;;77.80;35.58;;;5.70;99.90;;;;;;5031393;28;20721;-63
2022/01/24 08:15:54;;;;;;;70.80;34.58;;;5.70;99.90;;;;;;5031418;28;20064;-63
2022/01/24 08:18:19;;;;;;;71.47;34.80;;;5.70;99.90;;;;;;5031405;28;20047;-63
2022/01/24 08:20:45;;;;;;;75.40;33.97;;;5.70;99.90;;;;;;5031414;28;20048;-63
2022/01/24 08:23:11;;;;;;;70.40;34.08;;;5.70;99.90;;;;;;5013284;28;20064;-63
2022/01/24 08:25:38;;;;;;;68.65;34.30;;;5.80;99.90;;;;;;5013720;28;20052;-63
2022/01/24 08:28:04;;;;;;;68.80;33.03;;;5.80;99.90;;;;;;5013717;28;20075;-63
2022/01/24 08:30:30;;;;;;;71.32;31.92;;;5.70;99.90;;;;;;5013593;28;20116;-63
2022/01/24 08:32:56;;;;;;;69.05;32.65;;;5.70;99.90;;;;;;5013071;28;20083;-63
2022/01/24 08:35:23;;;;;;;63.63;32.28;;;5.70;99.90;;;;;;5030991;28;20073;-63
2022/01/24 08:37:48;;;;;;;66.18;31.85;;;5.70;99.90;;;;;;5031139;28;20045;-63
2022/01/24 08:40:22;;;;;;;64.20;31.45;;;5.70;99.90;;;;;;5031170;28;20049;-63
2022/01/24 08:43:08;;;;;;;64.68;32.70;;;5.80;99.90;;;;;;5030708;28;20034;-63
2022/01/24 08:45:58;;;;;;;65.72;32.60;;;5.80;99.90;;;;;;5031059;28;20456;-63
2022/01/24 08:48:24;;;;;;;59.35;29.92;;;5.80;99.90;;;;;;5031006;28;20068;-63
2022/01/24 08:50:53;;;;;;;60.53;30.70;;;5.80;99.90;;;;;;5030911;28;20483;-63
2022/01/24 08:53:19;;;;;;;64.22;31.95;;;5.80;99.90;;;;;;5030287;28;20049;-63
2022/01/24 08:55:44;;;;;;;61.80;32.13;;;5.80;99.90;;;;;;5029842;28;20108;-63
2022/01/24 08:58:13;;;;;;;60.88;31.73;;;5.80;99.90;;;;;;5029275;28;20045;-63
2022/01/24 09:00:40;;;;;;;66.03;32.70;;;5.80;99.90;;;;;;5029857;28;20056;-63
2022/01/24 09:03:06;;;;;;;61.05;31.27;;;5.80;99.90;;;;;;5029777;28;20039;-63
2022/01/24 09:05:35;;;;;;;61.35;33.00;;;5.80;99.90;;;;;;5012196;28;20068;-63
2022/01/24 09:08:04;;;;;;;63.67;32.35;;;5.70;99.90;;;;;;5029845;28;20048;-63
2022/01/24 09:10:30;;;;;;;62.85;31.52;;;5.80;99.90;;;;;;5029995;28;20124;-62
2022/01/24 09:12:56;;;;;;;63.05;32.38;;;5.80;99.90;;;;;;5012252;28;20479;-62
2022/01/24 09:15:21;;;;;;;61.17;33.65;;;5.70;99.90;;;;;;5030480;28;20116;-62
2022/01/24 09:17:47;;;;;;;60.92;32.97;;;5.70;99.90;;;;;;5029771;28;20130;-62
2022/01/24 09:20:14;;;;;;;56.35;30.83;;;5.80;99.90;;;;;;5030097;28;20037;-62
2022/01/24 09:22:39;;;;;;;60.25;31.45;;;5.80;99.90;;;;;;5029690;28;20454;-62
2022/01/24 09:25:06;;;;;;;60.75;33.15;;;5.80;99.90;;;;;;5030097;28;20049;-62
2022/01/24 09:27:32;;;;;;;67.93;34.03;;;5.70;99.90;;;;;;5029504;28;20037;-64
2022/01/24 09:29:58;;;;;;;67.00;33.83;;;5.80;99.90;;;;;;5029147;28;20055;-62
2022/01/24 09:32:24;;;;;;;64.40;33.10;;;5.80;99.90;;;;;;5026048;28;20049;-63
2022/01/24 09:34:50;;;;;;;60.80;33.15;;;5.80;99.90;;;;;;5029999;28;20103;-62
2022/01/24 09:37:16;;;;;;;62.13;33.92;;;5.80;99.90;;;;;;5029589;28;20045;-62
2022/01/24 09:39:43;;;;;;;60.05;33.97;;;5.80;99.90;;;;;;5030118;28;20124;-62
2022/01/24 09:42:08;;;;;;;61.28;33.03;;;5.80;99.90;;;;;;5012138;28;20048;-62
2022/01/24 09:44:34;;;;;;;63.83;33.13;;;5.80;99.90;;;;;;5030043;28;20041;-63
2022/01/24 09:47:00;;;;;;;61.80;34.67;;;5.80;99.90;;;;;;5029900;28;20052;-62
2022/01/24 09:49:26;;;;;;;55.22;31.20;;;5.80;99.90;;;;;;5028644;28;20095;-62
2022/01/24 09:51:51;;;;;;;64.97;35.85;;;5.90;99.90;;;;;;4995092;28;20112;-62
2022/01/24 09:54:17;;;;;;;60.53;31.70;;;5.80;99.90;;;;;;5028749;28;20125;-62
2022/01/24 09:56:43;;;;;;;60.58;33.53;;;5.80;99.90;;;;;;5011253;28;20099;-62
2022/01/24 09:59:08;;;;;;;64.13;35.08;;;5.80;99.90;;;;;;5029868;28;20033;-63
2022/01/24 10:01:35;;;;;;;61.70;34.50;;;5.80;99.90;;;;;;5011199;28;20537;-62
2022/01/24 10:04:04;;;;;;;64.28;33.28;;;5.80;99.90;;;;;;5010826;28;20088;-62
2022/01/24 10:07:02;;;;;;;57.33;32.67;;;5.80;99.90;;;;;;5028282;28;20045;-62
2022/01/24 10:09:29;;;;;;;64.32;33.97;;;5.80;99.90;;;;;;5010254;28;20041;-62
2022/01/24 10:16:24;;;;;;;60.70;32.38;;;5.80;99.90;;;;;;5027918;28;20261;-62
2022/01/24 10:18:08;;;;;;;56.65;31.08;;;5.80;99.90;;;;;;5028457;28;20131;-63
2022/01/24 10:20:36;;;;;;;63.88;34.03;;;5.80;99.90;;;;;;5029546;28;20037;-62
2022/01/24 10:23:24;;;;;;;61.55;33.80;;;5.80;99.90;;;;;;5029001;28;20080;-62
2022/01/24 10:26:03;;;;;;;64.03;33.30;;;5.80;99.90;;;;;;5029825;28;20033;-63
2022/01/24 10:28:33;;;;;;;60.80;31.60;;;5.80;99.90;;;;;;5029830;28;20030;-62
2022/01/24 10:31:11;;;;;;;57.58;31.13;;;5.80;99.90;;;;;;5032688;28;20037;-62
2022/01/24 10:34:17;;;;;;;55.20;28.95;;;5.90;99.90;;;;;;5033004;28;20045;-62
2022/01/24 10:36:54;;;;;;;58.42;29.98;;;5.90;99.90;;;;;;5033524;28;20038;-62
2022/01/24 10:44:49;;;;;;;57.20;29.33;;;5.90;99.90;;;;;;5033206;28;20049;-62
2022/01/24 10:47:22;;;;;;;53.15;28.98;;;5.90;99.90;;;;;;5033428;28;20025;-62
2022/01/24 10:49:47;;;;;;;54.97;29.60;;;5.90;99.90;;;;;;5033312;28;20041;-63
2022/01/24 10:52:19;;;;;;;51.90;26.20;;;5.90;99.90;;;;;;5015239;28;20041;-62
2022/01/24 10:54:48;;;;;;;;;;;5.90;99.90;;;;;;5015808;28;20045;-62
2022/01/24 10:57:28;;;;;;;51.60;28.23;;;5.80;99.90;;;;;;5032471;28;19972;-62
2022/01/24 11:00:13;;;;;;;45.80;24.27;;;5.80;99.90;;;;;;5031955;28;20622;-62
2022/01/24 11:02:42;;;;;;;47.35;24.38;;;5.80;99.90;;;;;;5031111;28;20045;-62
2022/01/24 11:05:12;;;;;;;47.25;26.10;;;5.90;99.90;;;;;;5032044;28;20033;-62
2022/01/24 11:07:59;;;;;;;47.38;26.60;;;5.80;99.90;;;;;;5015092;28;20407;-62
2022/01/24 11:10:27;;;;;;;46.33;26.17;;;5.80;99.90;;;;;;5032114;28;20114;-63
2022/01/24 11:12:53;;;;;;;52.22;29.75;;;5.80;99.90;;;;;;5031546;28;20407;-62
2022/01/24 11:15:23;;;;;;;46.35;28.55;;;5.80;99.90;;;;;;5032048;28;20043;-63
2022/01/24 11:17:50;;;;;;;41.30;24.52;;;5.80;99.90;;;;;;5014849;28;20092;-63
2022/01/24 11:20:18;;;;;;;41.75;25.02;;;5.80;99.90;;;;;;5032291;28;20038;-63
2022/01/24 11:22:49;;;;;;;47.70;26.58;;;5.80;99.90;;;;;;5031771;28;20044;-62
2022/01/24 11:25:15;;;;;;;42.55;25.15;;;5.80;99.90;;;;;;5032100;28;20037;-62
2022/01/24 11:27:44;;;;;;;40.47;24.50;;;5.80;99.90;;;;;;5031871;28;20033;-63
2022/01/24 11:30:16;;;;;;;37.40;22.08;;;5.80;99.90;;;;;;5032188;28;20041;-62
2022/01/24 11:32:53;;;;;;;37.10;23.13;;;5.80;99.90;;;;;;5031834;28;20037;-63
2022/01/24 11:35:38;;;;;;;31.27;18.45;;;5.80;99.90;;;;;;5031938;28;20034;-63
2022/01/24 11:38:24;;;;;;;29.85;20.25;;;5.80;99.90;;;;;;5011791;28;20037;-63
2022/01/24 11:40:53;;;;;;;31.65;19.88;;;5.80;99.90;;;;;;5029669;28;20088;-63
2022/01/24 11:43:33;;;;;;;32.08;19.50;;;5.80;99.90;;;;;;5013880;28;20080;-63
2022/01/24 11:46:06;;;;;;;33.40;21.10;;;5.80;99.90;;;;;;5012421;28;20091;-63
2022/01/24 11:48:34;;;;;;;31.77;21.08;;;5.80;99.90;;;;;;5011353;28;20033;-62
2022/01/24 11:51:10;;;;;;;34.60;22.85;;;5.80;99.90;;;;;;5031659;28;20037;-63
2022/01/24 11:53:42;;;;;;;36.38;22.63;;;5.80;99.90;;;;;;5030178;28;20037;-63
2022/01/24 11:56:25;;;;;;;40.15;24.38;;;5.80;99.90;;;;;;5013699;28;20083;-63
2022/01/24 11:58:52;;;;;;;40.42;25.20;;;5.80;99.90;;;;;;5029654;28;20040;-63
2022/01/24 12:01:35;;;;;;;38.15;25.02;;;5.90;99.90;;;;;;5031098;28;20037;-62
2022/01/24 12:04:00;;;;;;;40.75;26.75;;;5.90;99.90;;;;;;5030817;28;20041;-62
2022/01/24 12:06:26;;;;;;;41.72;26.77;;;5.80;99.90;;;;;;5031051;28;20033;-63
2022/01/24 12:09:02;;;;;;;43.67;27.63;;;5.80;99.90;;;;;;5031234;28;20041;-63
2022/01/24 12:11:33;;;;;;;45.15;26.92;;;5.80;99.90;;;;;;5011821;28;20041;-63
2022/01/24 12:14:12;;;;;;;43.00;27.20;;;5.70;99.90;;;;;;5013960;28;20045;-63
2022/01/24 12:16:43;;;;;;;45.28;28.58;;;5.70;99.90;;;;;;5031291;28;20360;-63
2022/01/24 12:19:11;;;;;;;45.80;28.38;;;5.80;99.90;;;;;;5013574;28;20045;-62
2022/01/24 12:21:41;;;;;;;46.38;28.38;;;5.80;99.90;;;;;;5030923;28;20144;-62
2022/01/24 12:24:12;;;;;;;40.13;24.92;;;5.80;99.90;;;;;;5031048;28;20120;-62
2022/01/24 12:26:49;;;;;;;39.70;25.40;;;5.90;99.90;;;;;;5031236;28;20055;-62
2022/01/24 12:29:21;;;;;;;40.28;25.90;;;5.90;99.90;;;;;;5031185;28;20037;-63
2022/01/24 12:31:52;;;;;;;40.20;26.38;;;5.90;99.90;;;;;;5030135;28;20045;-63
2022/01/24 12:34:23;;;;;;;42.65;27.58;;;5.80;99.90;;;;;;5031002;28;20037;-63
2022/01/24 12:37:00;;;;;;;43.95;27.83;;;5.80;99.90;;;;;;5031253;28;20140;-62
2022/01/24 12:39:33;;;;;;;46.75;28.35;;;5.80;99.90;;;;;;5013348;28;20056;-63
2022/01/24 12:42:12;;;;;;;43.85;27.48;;;5.80;99.90;;;;;;5031018;28;20068;-63
2022/01/24 12:47:14;;;;;;;29.27;19.50;;;5.70;99.90;;;;;;5030795;28;20086;-63
2022/01/24 12:49:41;;;;;;;28.65;18.95;;;5.70;99.90;;;;;;5030992;28;20415;-63
2022/01/24 12:52:15;;;;;;;36.08;22.27;;;5.80;99.90;;;;;;5030001;28;20269;-63
2022/01/24 12:54:43;;;;;;;40.05;24.67;;;5.70;99.90;;;;;;5030785;28;20440;-63
2022/01/24 12:57:14;;;;;;;34.30;22.45;;;5.80;99.90;;;;;;5030773;28;20037;-63
2022/01/24 12:59:55;;;;;;;38.42;23.42;;;5.80;99.90;;;;;;5030612;28;20048;-63
2022/01/24 13:02:26;;;;;;;29.15;18.40;;;5.80;99.90;;;;;;5017093;23;20214;-63
2022/01/24 13:05:04;;;;;;;28.88;18.90;;;5.80;99.90;;;;;;4993132;28;20053;-63
2022/01/24 13:07:31;;;;;;;32.65;21.27;;;5.80;99.90;;;;;;4993632;28;20037;-62
2022/01/24 13:10:29;;;;;;;31.25;20.67;;;5.80;99.90;;;;;;4993014;28;20113;-63
2022/01/24 13:12:59;;;;;;;28.52;18.55;;;5.80;99.90;;;;;;4994710;28;20063;-63
2022/01/24 13:20:25;;;;;;;28.65;18.60;;;5.80;99.90;;;;;;5010846;28;20042;-63
2022/01/24 13:21:09;;;;;;;33.38;19.73;;;5.80;99.90;;;;;;5010608;28;20160;-62
2022/01/24 13:23:40;;;;;;;29.35;18.95;;;5.80;99.90;;;;;;5010412;28;20045;-62
2022/01/24 13:26:06;;;;;;;34.42;21.38;;;5.80;99.90;;;;;;5010685;28;20066;-63
2022/01/24 13:28:32;;;;;;;33.88;20.83;;;5.80;99.90;;;;;;5010334;28;20034;-63
2022/01/24 13:31:01;;;;;;;32.17;21.80;;;5.80;99.90;;;;;;4991938;28;20622;-63
2022/01/24 13:33:30;;;;;;;46.35;24.45;;;5.80;99.90;;;;;;5008361;28;20109;-63
2022/01/24 13:35:59;;;;;;;36.30;21.20;;;5.90;99.90;;;;;;4988939;28;20042;-63
2022/01/24 13:38:26;;;;;;;37.42;23.60;;;5.90;99.90;;;;;;4990779;28;20048;-63
2022/01/24 13:40:59;;;;;;;39.60;22.90;;;5.90;99.90;;;;;;4990554;28;20056;-63
2022/01/24 13:43:37;;;;;;;38.83;23.50;;;5.90;99.90;;;;;;4972835;28;20136;-63
2022/01/24 13:46:09;;;;;;;43.15;25.08;;;5.90;99.90;;;;;;4989255;28;20061;-64
2022/01/24 13:48:57;;;;;;;41.97;24.80;;;5.90;99.90;;;;;;4990820;28;20505;-64
2022/01/24 13:51:36;;;;;;;40.85;24.08;;;5.90;99.90;;;;;;4990492;28;20034;-64
2022/01/24 13:54:05;;;;;;;39.55;24.35;;;5.90;99.90;;;;;;4990281;28;20413;-64
2022/01/24 13:56:44;;;;;;;38.92;23.75;;;5.80;99.90;;;;;;4990580;28;20042;-64
2022/01/24 13:59:10;;;;;;;44.10;25.15;;;5.80;99.90;;;;;;4990821;28;20046;-66
2022/01/24 14:01:37;;;;;;;44.55;25.40;;;5.70;99.90;;;;;;4973041;28;20483;-64
2022/01/24 14:04:09;;;;;;;42.88;24.88;;;5.80;99.90;;;;;;4992570;28;20049;-64
2022/01/24 14:06:37;;;;;;;44.08;24.73;;;5.80;99.90;;;;;;5019358;28;20030;-64
2022/01/24 14:09:15;;;;;;;39.70;23.55;;;5.80;99.90;;;;;;5015592;28;20037;-64
2022/01/24 14:11:42;;;;;;;39.67;23.83;;;5.70;99.90;;;;;;5014831;28;20041;-64
2022/01/24 14:14:12;;;;;;;40.67;23.95;;;5.80;99.90;;;;;;5015102;28;20116;-64
2022/01/24 14:19:34;;;;;;;40.83;24.92;;;5.70;99.90;;;;;;4999321;28;20080;-64
2022/01/24 14:22:03;;;;;;;43.90;24.70;;;5.60;99.90;;;;;;5015417;28;20137;-64
2022/01/24 14:24:56;;;;;;;42.70;24.63;;;5.60;99.90;;;;;;5015667;28;20038;-64
2022/01/24 14:27:46;;;;;;;41.50;24.58;;;5.70;99.90;;;;;;4998310;28;20045;-64
2022/01/24 14:30:19;;;;;;;44.70;25.48;;;5.70;99.90;;;;;;5016243;28;20100;-64